sensor_id;sensor_type;location;lat;lon;timestamp;pressure;altitude;pressure_sealevel;temperature;humidity
74163;BME280;62515;52.758;5.076;2023-09-19T00:01:29;100596.56;;;12.01;100.00
74163;BME280;62515;52.758;5.076;2023-09-19T00:03:58;100568.50;;;11.86;100.00
74163;BME280;62515;52.758;5.076;2023-09-19T00:06:24;100570.16;;;11.98;100.00
74163;BME280;62515;52.758;5.076;2023-09-19T00:08:51;100579.00;;;11.99;100.00
74163;BME280;62515;52.758;5.076;2023-09-19T00:11:18;100588.31;;;12.16;100.00
74163;BME280;62515;52.758;5.076;2023-09-19T00:13:49;100561.44;;;11.96;100.00
74163;BME280;62515;52.758;5.076;2023-09-19T00:16:16;100619.94;;;12.20;100.00
74163;BME280;62515;52.758;5.076;2023-09-19T00:18:43;100611.41;;;12.26;100.00
74163;BME280;62515;52.758;5.076;2023-09-19T00:21:11;100615.16;;;12.35;100.00
74163;BME280;62515;52.758;5.076;2023-09-19T00:23:38;100621.09;;;12.38;100.00
74163;BME280;62515;52.758;5.076;2023-09-19T00:26:05;100599.66;;;12.29;100.00
74163;BME280;62515;52.758;5.076;2023-09-19T00:28:32;100604.75;;;12.32;100.00
74163;BME280;62515;52.758;5.076;2023-09-19T00:30:59;100621.69;;;12.42;100.00
74163;BME280;62515;52.758;5.076;2023-09-19T00:33:26;100636.84;;;12.41;100.00
74163;BME280;62515;52.758;5.076;2023-09-19T00:35:54;100608.63;;;12.28;100.00
74163;BME280;62515;52.758;5.076;2023-09-19T00:38:22;100594.38;;;12.06;100.00
74163;BME280;62515;52.758;5.076;2023-09-19T00:40:50;100605.63;;;12.10;100.00
74163;BME280;62515;52.758;5.076;2023-09-19T00:43:17;100578.53;;;11.94;100.00
74163;BME280;62515;52.758;5.076;2023-09-19T00:45:47;100615.25;;;12.13;100.00
74163;BME280;62515;52.758;5.076;2023-09-19T00:48:14;100592.66;;;12.17;100.00
74163;BME280;62515;52.758;5.076;2023-09-19T00:50:42;100631.53;;;12.41;100.00
74163;BME280;62515;52.758;5.076;2023-09-19T00:53:12;100605.22;;;12.26;100.00
74163;BME280;62515;52.758;5.076;2023-09-19T00:55:41;100613.72;;;12.31;100.00
74163;BME280;62515;52.758;5.076;2023-09-19T00:58:08;100643.41;;;12.48;100.00
74163;BME280;62515;52.758;5.076;2023-09-19T01:00:36;100642.06;;;12.43;100.00
74163;BME280;62515;52.758;5.076;2023-09-19T01:03:03;100650.53;;;12.48;100.00
74163;BME280;62515;52.758;5.076;2023-09-19T01:05:30;100628.38;;;12.36;100.00
74163;BME280;62515;52.758;5.076;2023-09-19T01:07:57;100649.81;;;12.46;100.00
74163;BME280;62515;52.758;5.076;2023-09-19T01:10:24;100625.94;;;12.33;100.00
74163;BME280;62515;52.758;5.076;2023-09-19T01:12:57;100641.34;;;12.41;100.00
74163;BME280;62515;52.758;5.076;2023-09-19T01:15:36;100657.53;;;12.60;100.00
74163;BME280;62515;52.758;5.076;2023-09-19T01:18:12;100651.41;;;12.69;100.00
74163;BME280;62515;52.758;5.076;2023-09-19T01:20:45;100656.25;;;12.75;100.00
74163;BME280;62515;52.758;5.076;2023-09-19T01:23:24;100654.66;;;12.84;100.00
74163;BME280;62515;52.758;5.076;2023-09-19T01:26:06;100655.03;;;12.79;100.00
74163;BME280;62515;52.758;5.076;2023-09-19T01:28:52;100638.81;;;12.71;100.00
74163;BME280;62515;52.758;5.076;2023-09-19T01:31:21;100640.81;;;12.79;100.00
74163;BME280;62515;52.758;5.076;2023-09-19T01:33:59;100641.94;;;12.76;100.00
74163;BME280;62515;52.758;5.076;2023-09-19T01:36:28;100649.56;;;12.81;100.00
74163;BME280;62515;52.758;5.076;2023-09-19T01:38:57;100651.31;;;12.91;100.00
74163;BME280;62515;52.758;5.076;2023-09-19T01:41:26;100648.97;;;12.98;100.00
74163;BME280;62515;52.758;5.076;2023-09-19T01:43:56;100623.63;;;12.92;100.00
74163;BME280;62515;52.758;5.076;2023-09-19T01:46:30;100619.25;;;12.91;100.00
74163;BME280;62515;52.758;5.076;2023-09-19T01:49:07;100615.88;;;12.89;100.00
74163;BME280;62515;52.758;5.076;2023-09-19T01:51:48;100654.88;;;13.13;100.00
74163;BME280;62515;52.758;5.076;2023-09-19T01:54:18;100654.16;;;13.10;100.00
74163;BME280;62515;52.758;5.076;2023-09-19T01:56:57;100636.22;;;13.01;100.00
74163;BME280;62515;52.758;5.076;2023-09-19T01:59:30;100648.69;;;13.12;100.00
74163;BME280;62515;52.758;5.076;2023-09-19T02:02:00;100644.66;;;13.18;100.00
74163;BME280;62515;52.758;5.076;2023-09-19T02:04:28;100656.72;;;13.33;100.00
74163;BME280;62515;52.758;5.076;2023-09-19T02:06:56;100632.19;;;13.28;100.00
74163;BME280;62515;52.758;5.076;2023-09-19T02:09:24;100616.47;;;13.14;100.00
74163;BME280;62515;52.758;5.076;2023-09-19T02:11:52;100660.34;;;13.32;100.00
74163;BME280;62515;52.758;5.076;2023-09-19T02:14:18;100664.19;;;13.18;100.00
74163;BME280;62515;52.758;5.076;2023-09-19T02:16:46;100654.09;;;13.22;100.00
74163;BME280;62515;52.758;5.076;2023-09-19T02:19:14;100632.56;;;13.02;100.00
74163;BME280;62515;52.758;5.076;2023-09-19T02:21:41;100629.19;;;13.00;100.00
74163;BME280;62515;52.758;5.076;2023-09-19T02:24:08;100666.28;;;13.15;100.00
74163;BME280;62515;52.758;5.076;2023-09-19T02:26:34;100652.22;;;13.01;100.00
74163;BME280;62515;52.758;5.076;2023-09-19T02:29:01;100630.47;;;12.85;100.00
74163;BME280;62515;52.758;5.076;2023-09-19T02:31:28;100663.19;;;12.98;100.00
74163;BME280;62515;52.758;5.076;2023-09-19T02:33:55;100638.81;;;12.71;100.00
74163;BME280;62515;52.758;5.076;2023-09-19T02:36:23;100650.31;;;12.72;100.00
74163;BME280;62515;52.758;5.076;2023-09-19T02:38:50;100671.41;;;13.06;100.00
74163;BME280;62515;52.758;5.076;2023-09-19T02:41:16;100662.75;;;13.14;100.00
74163;BME280;62515;52.758;5.076;2023-09-19T02:43:43;100664.25;;;13.28;100.00
74163;BME280;62515;52.758;5.076;2023-09-19T02:46:10;100648.22;;;13.28;100.00
74163;BME280;62515;52.758;5.076;2023-09-19T02:48:37;100642.44;;;13.23;100.00
74163;BME280;62515;52.758;5.076;2023-09-19T02:51:03;100654.84;;;13.33;100.00
74163;BME280;62515;52.758;5.076;2023-09-19T02:53:31;100642.94;;;13.37;100.00
74163;BME280;62515;52.758;5.076;2023-09-19T02:55:58;100635.34;;;13.33;100.00
74163;BME280;62515;52.758;5.076;2023-09-19T02:58:25;100627.69;;;13.28;100.00
74163;BME280;62515;52.758;5.076;2023-09-19T03:00:52;100631.50;;;13.26;100.00
74163;BME280;62515;52.758;5.076;2023-09-19T03:03:19;100631.28;;;13.18;100.00
74163;BME280;62515;52.758;5.076;2023-09-19T03:05:46;100641.13;;;13.17;100.00
74163;BME280;62515;52.758;5.076;2023-09-19T03:08:14;100666.22;;;13.26;100.00
74163;BME280;62515;52.758;5.076;2023-09-19T03:10:45;100658.31;;;13.24;100.00
74163;BME280;62515;52.758;5.076;2023-09-19T03:13:12;100660.03;;;13.25;100.00
74163;BME280;62515;52.758;5.076;2023-09-19T03:15:41;100662.16;;;13.31;100.00
74163;BME280;62515;52.758;5.076;2023-09-19T03:18:10;100671.03;;;13.32;100.00
74163;BME280;62515;52.758;5.076;2023-09-19T03:20:37;100670.06;;;13.33;100.00
74163;BME280;62515;52.758;5.076;2023-09-19T03:23:04;100678.66;;;13.36;100.00
74163;BME280;62515;52.758;5.076;2023-09-19T03:25:31;100663.41;;;13.27;100.00
74163;BME280;62515;52.758;5.076;2023-09-19T03:27:59;100664.53;;;13.25;100.00
74163;BME280;62515;52.758;5.076;2023-09-19T03:30:26;100663.09;;;13.21;100.00
74163;BME280;62515;52.758;5.076;2023-09-19T03:32:53;100657.75;;;13.21;100.00
74163;BME280;62515;52.758;5.076;2023-09-19T03:35:20;100641.78;;;13.09;100.00
74163;BME280;62515;52.758;5.076;2023-09-19T03:37:47;100667.03;;;13.17;100.00
74163;BME280;62515;52.758;5.076;2023-09-19T03:40:14;100676.25;;;13.13;100.00
74163;BME280;62515;52.758;5.076;2023-09-19T03:42:42;100674.72;;;13.10;100.00
74163;BME280;62515;52.758;5.076;2023-09-19T03:45:13;100651.38;;;13.01;100.00
74163;BME280;62515;52.758;5.076;2023-09-19T03:47:46;100668.75;;;13.06;100.00
74163;BME280;62515;52.758;5.076;2023-09-19T03:50:13;100654.47;;;12.96;100.00
74163;BME280;62515;52.758;5.076;2023-09-19T03:52:39;100677.13;;;13.13;100.00
74163;BME280;62515;52.758;5.076;2023-09-19T03:55:07;100675.03;;;13.17;100.00
74163;BME280;62515;52.758;5.076;2023-09-19T03:57:33;100656.47;;;13.04;100.00
74163;BME280;62515;52.758;5.076;2023-09-19T04:00:00;100655.50;;;13.05;100.00
74163;BME280;62515;52.758;5.076;2023-09-19T04:02:29;100681.19;;;13.17;100.00
74163;BME280;62515;52.758;5.076;2023-09-19T04:04:55;100687.03;;;13.22;100.00
74163;BME280;62515;52.758;5.076;2023-09-19T04:07:22;100690.66;;;13.21;100.00
74163;BME280;62515;52.758;5.076;2023-09-19T04:09:49;100688.41;;;13.17;100.00
74163;BME280;62515;52.758;5.076;2023-09-19T04:12:16;100696.84;;;13.22;100.00
74163;BME280;62515;52.758;5.076;2023-09-19T04:14:44;100702.63;;;13.27;100.00
74163;BME280;62515;52.758;5.076;2023-09-19T04:17:10;100677.03;;;13.24;100.00
74163;BME280;62515;52.758;5.076;2023-09-19T04:19:39;100693.28;;;13.32;100.00
74163;BME280;62515;52.758;5.076;2023-09-19T04:22:05;100708.31;;;13.33;100.00
74163;BME280;62515;52.758;5.076;2023-09-19T04:24:32;100716.91;;;13.37;100.00
74163;BME280;62515;52.758;5.076;2023-09-19T04:27:00;100692.09;;;13.25;100.00
74163;BME280;62515;52.758;5.076;2023-09-19T04:29:27;100708.47;;;13.32;100.00
74163;BME280;62515;52.758;5.076;2023-09-19T04:32:07;100701.94;;;13.25;100.00
74163;BME280;62515;52.758;5.076;2023-09-19T04:34:34;100710.88;;;13.35;100.00
74163;BME280;62515;52.758;5.076;2023-09-19T04:37:02;100712.69;;;13.34;100.00
74163;BME280;62515;52.758;5.076;2023-09-19T04:39:29;100715.50;;;13.33;100.00
74163;BME280;62515;52.758;5.076;2023-09-19T04:41:56;100710.91;;;13.24;100.00
74163;BME280;62515;52.758;5.076;2023-09-19T04:44:23;100711.69;;;13.15;100.00
74163;BME280;62515;52.758;5.076;2023-09-19T04:46:49;100693.03;;;13.03;100.00
74163;BME280;62515;52.758;5.076;2023-09-19T04:49:16;100702.97;;;13.13;100.00
74163;BME280;62515;52.758;5.076;2023-09-19T04:51:43;100701.75;;;13.05;100.00
74163;BME280;62515;52.758;5.076;2023-09-19T04:54:11;100681.88;;;12.78;100.00
74163;BME280;62515;52.758;5.076;2023-09-19T04:56:38;100717.50;;;12.88;100.00
74163;BME280;62515;52.758;5.076;2023-09-19T04:59:04;100698.78;;;12.67;100.00
74163;BME280;62515;52.758;5.076;2023-09-19T05:01:31;100717.28;;;12.80;100.00
74163;BME280;62515;52.758;5.076;2023-09-19T05:03:58;100710.59;;;12.85;100.00
74163;BME280;62515;52.758;5.076;2023-09-19T05:06:25;100710.84;;;12.82;100.00
74163;BME280;62515;52.758;5.076;2023-09-19T05:08:51;100709.72;;;12.85;100.00
74163;BME280;62515;52.758;5.076;2023-09-19T05:11:20;100712.03;;;12.89;100.00
74163;BME280;62515;52.758;5.076;2023-09-19T05:13:46;100714.44;;;12.92;100.00
74163;BME280;62515;52.758;5.076;2023-09-19T05:16:13;100689.75;;;12.79;100.00
74163;BME280;62515;52.758;5.076;2023-09-19T05:18:40;100708.16;;;12.93;100.00
74163;BME280;62515;52.758;5.076;2023-09-19T05:21:07;100694.78;;;12.93;100.00
74163;BME280;62515;52.758;5.076;2023-09-19T05:23:34;100677.06;;;12.92;100.00
74163;BME280;62515;52.758;5.076;2023-09-19T05:26:00;100707.72;;;13.09;100.00
74163;BME280;62515;52.758;5.076;2023-09-19T05:28:29;100687.84;;;12.91;100.00
74163;BME280;62515;52.758;5.076;2023-09-19T05:30:55;100694.06;;;12.91;100.00
74163;BME280;62515;52.758;5.076;2023-09-19T05:33:22;100678.53;;;12.85;100.00
74163;BME280;62515;52.758;5.076;2023-09-19T05:35:49;100729.69;;;13.13;100.00
74163;BME280;62515;52.758;5.076;2023-09-19T05:38:16;100730.16;;;13.18;100.00
74163;BME280;62515;52.758;5.076;2023-09-19T05:40:42;100687.44;;;13.06;100.00
74163;BME280;62515;52.758;5.076;2023-09-19T05:43:11;100724.75;;;13.29;100.00
74163;BME280;62515;52.758;5.076;2023-09-19T05:45:39;100730.75;;;13.42;100.00
74163;BME280;62515;52.758;5.076;2023-09-19T05:48:10;100737.28;;;13.49;100.00
74163;BME280;62515;52.758;5.076;2023-09-19T05:50:37;100725.16;;;13.45;100.00
74163;BME280;62515;52.758;5.076;2023-09-19T05:53:04;100730.34;;;13.46;100.00
74163;BME280;62515;52.758;5.076;2023-09-19T05:55:31;100731.41;;;13.55;100.00
74163;BME280;62515;52.758;5.076;2023-09-19T05:57:59;100732.59;;;13.62;100.00
74163;BME280;62515;52.758;5.076;2023-09-19T06:00:26;100724.09;;;13.57;100.00
74163;BME280;62515;52.758;5.076;2023-09-19T06:02:55;100732.97;;;13.57;100.00
74163;BME280;62515;52.758;5.076;2023-09-19T06:05:23;100741.56;;;13.61;100.00
74163;BME280;62515;52.758;5.076;2023-09-19T06:07:50;100748.91;;;13.59;100.00
74163;BME280;62515;52.758;5.076;2023-09-19T06:10:17;100726.72;;;13.47;100.00
74163;BME280;62515;52.758;5.076;2023-09-19T06:12:44;100732.84;;;13.59;100.00
74163;BME280;62515;52.758;5.076;2023-09-19T06:15:12;100730.22;;;13.69;100.00
74163;BME280;62515;52.758;5.076;2023-09-19T06:17:39;100735.91;;;13.75;100.00
74163;BME280;62515;52.758;5.076;2023-09-19T06:20:08;100705.66;;;13.54;100.00
74163;BME280;62515;52.758;5.076;2023-09-19T06:22:35;100735.31;;;13.72;100.00
74163;BME280;62515;52.758;5.076;2023-09-19T06:25:02;100726.44;;;13.71;100.00
74163;BME280;62515;52.758;5.076;2023-09-19T06:27:31;100732.09;;;13.78;100.00
74163;BME280;62515;52.758;5.076;2023-09-19T06:29:58;100708.00;;;13.68;100.00
74163;BME280;62515;52.758;5.076;2023-09-19T06:32:26;100736.50;;;13.88;100.00
74163;BME280;62515;52.758;5.076;2023-09-19T06:34:53;100710.75;;;13.87;100.00
74163;BME280;62515;52.758;5.076;2023-09-19T06:37:22;100731.41;;;14.15;100.00
74163;BME280;62515;52.758;5.076;2023-09-19T06:39:48;100730.44;;;14.17;100.00
74163;BME280;62515;52.758;5.076;2023-09-19T06:42:16;100731.31;;;14.17;100.00
74163;BME280;62515;52.758;5.076;2023-09-19T06:44:45;100734.78;;;14.18;100.00
74163;BME280;62515;52.758;5.076;2023-09-19T06:47:31;100704.63;;;14.06;100.00
74163;BME280;62515;52.758;5.076;2023-09-19T06:49:58;100726.34;;;14.12;100.00
74163;BME280;62515;52.758;5.076;2023-09-19T06:52:26;100748.09;;;14.29;100.00
74163;BME280;62515;52.758;5.076;2023-09-19T06:54:53;100741.09;;;14.37;100.00
74163;BME280;62515;52.758;5.076;2023-09-19T06:57:20;100754.28;;;14.50;100.00
74163;BME280;62515;52.758;5.076;2023-09-19T06:59:50;100736.63;;;14.57;100.00
74163;BME280;62515;52.758;5.076;2023-09-19T07:02:16;100702.28;;;14.62;100.00
74163;BME280;62515;52.758;5.076;2023-09-19T07:04:44;100739.81;;;14.91;100.00
74163;BME280;62515;52.758;5.076;2023-09-19T07:07:11;100742.63;;;14.99;100.00
74163;BME280;62515;52.758;5.076;2023-09-19T07:09:40;100724.41;;;15.02;100.00
74163;BME280;62515;52.758;5.076;2023-09-19T07:12:06;100757.44;;;15.32;100.00
74163;BME280;62515;52.758;5.076;2023-09-19T07:14:35;100749.94;;;15.45;100.00
74163;BME280;62515;52.758;5.076;2023-09-19T07:17:02;100731.63;;;15.40;100.00
74163;BME280;62515;52.758;5.076;2023-09-19T07:19:34;100749.41;;;15.60;100.00
74163;BME280;62515;52.758;5.076;2023-09-19T07:22:01;100747.13;;;15.65;100.00
74163;BME280;62515;52.758;5.076;2023-09-19T07:24:29;100766.44;;;15.79;100.00
74163;BME280;62515;52.758;5.076;2023-09-19T07:26:58;100759.28;;;15.69;100.00
74163;BME280;62515;52.758;5.076;2023-09-19T07:29:24;100764.19;;;15.74;100.00
74163;BME280;62515;52.758;5.076;2023-09-19T07:31:51;100765.75;;;15.77;100.00
74163;BME280;62515;52.758;5.076;2023-09-19T07:34:18;100769.97;;;15.79;100.00
74163;BME280;62515;52.758;5.076;2023-09-19T07:36:45;100766.56;;;15.77;100.00
74163;BME280;62515;52.758;5.076;2023-09-19T07:39:12;100773.91;;;15.85;100.00
74163;BME280;62515;52.758;5.076;2023-09-19T07:41:48;100762.50;;;15.83;100.00
74163;BME280;62515;52.758;5.076;2023-09-19T07:44:17;100723.34;;;15.80;100.00
74163;BME280;62515;52.758;5.076;2023-09-19T07:46:44;100722.50;;;15.89;100.00
74163;BME280;62515;52.758;5.076;2023-09-19T07:49:11;100749.22;;;16.18;100.00
74163;BME280;62515;52.758;5.076;2023-09-19T07:51:38;100754.13;;;16.22;100.00
74163;BME280;62515;52.758;5.076;2023-09-19T07:54:05;100753.81;;;16.35;100.00
74163;BME280;62515;52.758;5.076;2023-09-19T07:56:32;100746.69;;;16.44;100.00
74163;BME280;62515;52.758;5.076;2023-09-19T07:58:59;100732.66;;;16.50;100.00
74163;BME280;62515;52.758;5.076;2023-09-19T08:01:27;100733.25;;;16.44;100.00
74163;BME280;62515;52.758;5.076;2023-09-19T08:03:54;100750.28;;;16.62;100.00
74163;BME280;62515;52.758;5.076;2023-09-19T08:06:21;100726.09;;;16.62;100.00
74163;BME280;62515;52.758;5.076;2023-09-19T08:08:50;100734.28;;;16.70;100.00
74163;BME280;62515;52.758;5.076;2023-09-19T08:11:17;100736.72;;;16.81;100.00
74163;BME280;62515;52.758;5.076;2023-09-19T08:13:44;100728.75;;;16.89;100.00
74163;BME280;62515;52.758;5.076;2023-09-19T08:16:11;100727.53;;;17.01;100.00
74163;BME280;62515;52.758;5.076;2023-09-19T08:18:39;100698.41;;;16.79;100.00
74163;BME280;62515;52.758;5.076;2023-09-19T08:21:06;100720.97;;;17.04;100.00
74163;BME280;62515;52.758;5.076;2023-09-19T08:23:33;100740.13;;;17.18;100.00
74163;BME280;62515;52.758;5.076;2023-09-19T08:26:00;100727.88;;;17.42;100.00
74163;BME280;62515;52.758;5.076;2023-09-19T08:28:27;100692.06;;;17.41;100.00
74163;BME280;62515;52.758;5.076;2023-09-19T08:31:01;100700.34;;;17.48;100.00
74163;BME280;62515;52.758;5.076;2023-09-19T08:33:28;100726.44;;;17.73;100.00
74163;BME280;62515;52.758;5.076;2023-09-19T08:35:57;100718.88;;;17.68;100.00
74163;BME280;62515;52.758;5.076;2023-09-19T08:38:24;100668.69;;;17.42;100.00
74163;BME280;62515;52.758;5.076;2023-09-19T08:40:51;100723.22;;;17.69;100.00
74163;BME280;62515;52.758;5.076;2023-09-19T08:43:21;100711.59;;;17.69;100.00
74163;BME280;62515;52.758;5.076;2023-09-19T08:45:48;100720.22;;;17.72;100.00
74163;BME280;62515;52.758;5.076;2023-09-19T08:48:22;100729.84;;;17.75;100.00
74163;BME280;62515;52.758;5.076;2023-09-19T08:50:58;100713.50;;;18.02;100.00
74163;BME280;62515;52.758;5.076;2023-09-19T08:53:41;100719.53;;;17.96;100.00
74163;BME280;62515;52.758;5.076;2023-09-19T08:56:09;100733.06;;;18.12;100.00
74163;BME280;62515;52.758;5.076;2023-09-19T08:58:44;100729.72;;;18.18;100.00
74163;BME280;62515;52.758;5.076;2023-09-19T09:01:11;100722.47;;;18.11;100.00
74163;BME280;62515;52.758;5.076;2023-09-19T09:03:40;100725.31;;;18.09;100.00
74163;BME280;62515;52.758;5.076;2023-09-19T09:06:10;100724.00;;;18.21;100.00
74163;BME280;62515;52.758;5.076;2023-09-19T09:08:37;100698.84;;;18.39;100.00
74163;BME280;62515;52.758;5.076;2023-09-19T09:11:05;100724.78;;;18.48;100.00
74163;BME280;62515;52.758;5.076;2023-09-19T09:13:32;100687.25;;;18.46;100.00
74163;BME280;62515;52.758;5.076;2023-09-19T09:15:59;100709.41;;;18.32;100.00
74163;BME280;62515;52.758;5.076;2023-09-19T09:18:26;100727.81;;;18.45;100.00
74163;BME280;62515;52.758;5.076;2023-09-19T09:20:52;100725.13;;;18.45;100.00
74163;BME280;62515;52.758;5.076;2023-09-19T09:23:20;100721.13;;;18.15;100.00
74163;BME280;62515;52.758;5.076;2023-09-19T09:25:49;100680.50;;;18.00;100.00
74163;BME280;62515;52.758;5.076;2023-09-19T09:28:20;100720.19;;;18.66;100.00
74163;BME280;62515;52.758;5.076;2023-09-19T09:30:47;100699.81;;;18.79;100.00
74163;BME280;62515;52.758;5.076;2023-09-19T09:33:14;100713.75;;;18.59;100.00
74163;BME280;62515;52.758;5.076;2023-09-19T09:35:51;100705.81;;;18.57;100.00
74163;BME280;62515;52.758;5.076;2023-09-19T09:38:21;100706.72;;;18.74;100.00
74163;BME280;62515;52.758;5.076;2023-09-19T09:40:49;100665.78;;;19.19;100.00
74163;BME280;62515;52.758;5.076;2023-09-19T09:43:26;100698.97;;;19.68;100.00
74163;BME280;62515;52.758;5.076;2023-09-19T09:46:06;100678.25;;;19.36;100.00
74163;BME280;62515;52.758;5.076;2023-09-19T09:48:33;100678.09;;;19.29;100.00
74163;BME280;62515;52.758;5.076;2023-09-19T09:51:00;100692.25;;;18.91;100.00
74163;BME280;62515;52.758;5.076;2023-09-19T09:53:29;100692.41;;;18.90;100.00
74163;BME280;62515;52.758;5.076;2023-09-19T09:55:58;100695.31;;;19.20;100.00
74163;BME280;62515;52.758;5.076;2023-09-19T09:58:25;100690.22;;;19.25;100.00
74163;BME280;62515;52.758;5.076;2023-09-19T10:00:53;100683.94;;;18.52;100.00
74163;BME280;62515;52.758;5.076;2023-09-19T10:03:20;100678.78;;;17.91;100.00
74163;BME280;62515;52.758;5.076;2023-09-19T10:05:53;100674.78;;;17.69;100.00
74163;BME280;62515;52.758;5.076;2023-09-19T10:08:20;100670.34;;;17.86;100.00
74163;BME280;62515;52.758;5.076;2023-09-19T10:10:48;100671.84;;;17.89;100.00
74163;BME280;62515;52.758;5.076;2023-09-19T10:13:15;100671.09;;;17.70;100.00
74163;BME280;62515;52.758;5.076;2023-09-19T10:15:43;100680.66;;;17.21;100.00
74163;BME280;62515;52.758;5.076;2023-09-19T10:18:11;100657.34;;;16.24;100.00
74163;BME280;62515;52.758;5.076;2023-09-19T10:20:38;100673.34;;;15.89;100.00
74163;BME280;62515;52.758;5.076;2023-09-19T10:23:07;100675.06;;;15.80;100.00
74163;BME280;62515;52.758;5.076;2023-09-19T10:25:36;100665.75;;;15.75;100.00
74163;BME280;62515;52.758;5.076;2023-09-19T10:28:06;100668.38;;;16.21;100.00
74163;BME280;62515;52.758;5.076;2023-09-19T10:30:37;100652.34;;;16.56;100.00
74163;BME280;62515;52.758;5.076;2023-09-19T10:33:04;100657.16;;;16.88;100.00
74163;BME280;62515;52.758;5.076;2023-09-19T10:35:32;100650.34;;;16.94;100.00
74163;BME280;62515;52.758;5.076;2023-09-19T10:38:00;100619.75;;;16.95;100.00
74163;BME280;62515;52.758;5.076;2023-09-19T10:40:28;100637.84;;;17.10;100.00
74163;BME280;62515;52.758;5.076;2023-09-19T10:42:59;100638.16;;;17.25;100.00
74163;BME280;62515;52.758;5.076;2023-09-19T10:45:30;100629.66;;;17.38;100.00
74163;BME280;62515;52.758;5.076;2023-09-19T10:47:57;100627.28;;;17.35;100.00
74163;BME280;62515;52.758;5.076;2023-09-19T10:50:24;100599.00;;;17.05;100.00
74163;BME280;62515;52.758;5.076;2023-09-19T10:52:53;100623.38;;;17.03;100.00
74163;BME280;62515;52.758;5.076;2023-09-19T10:55:20;100623.97;;;16.97;100.00
74163;BME280;62515;52.758;5.076;2023-09-19T10:57:47;100647.94;;;16.91;100.00
74163;BME280;62515;52.758;5.076;2023-09-19T11:00:14;100631.53;;;16.58;100.00
74163;BME280;62515;52.758;5.076;2023-09-19T11:02:42;100628.03;;;16.03;100.00
74163;BME280;62515;52.758;5.076;2023-09-19T11:05:13;100668.91;;;15.70;100.00
74163;BME280;62515;52.758;5.076;2023-09-19T11:07:58;100672.34;;;15.53;100.00
74163;BME280;62515;52.758;5.076;2023-09-19T11:10:44;100657.38;;;15.41;100.00
74163;BME280;62515;52.758;5.076;2023-09-19T11:13:24;100672.34;;;15.34;100.00
74163;BME280;62515;52.758;5.076;2023-09-19T11:16:17;100670.94;;;15.30;100.00
74163;BME280;62515;52.758;5.076;2023-09-19T11:18:55;100676.59;;;15.27;100.00
74163;BME280;62515;52.758;5.076;2023-09-19T11:21:41;100689.72;;;15.20;100.00
74163;BME280;62515;52.758;5.076;2023-09-19T11:24:30;100653.59;;;15.34;100.00
74163;BME280;62515;52.758;5.076;2023-09-19T11:27:11;100676.44;;;15.38;100.00
74163;BME280;62515;52.758;5.076;2023-09-19T11:29:37;100678.69;;;15.33;100.00
74163;BME280;62515;52.758;5.076;2023-09-19T11:32:04;100656.66;;;15.39;100.00
74163;BME280;62515;52.758;5.076;2023-09-19T11:34:46;100662.66;;;15.79;100.00
74163;BME280;62515;52.758;5.076;2023-09-19T11:40:26;100632.53;;;16.75;100.00
74163;BME280;62515;52.758;5.076;2023-09-19T11:42:52;100614.34;;;16.69;100.00
74163;BME280;62515;52.758;5.076;2023-09-19T11:48:24;100591.22;;;16.76;100.00
74163;BME280;62515;52.758;5.076;2023-09-19T11:50:52;100577.03;;;16.48;100.00
74163;BME280;62515;52.758;5.076;2023-09-19T11:53:20;100599.88;;;16.52;100.00
74163;BME280;62515;52.758;5.076;2023-09-19T11:55:47;100599.28;;;16.41;100.00
74163;BME280;62515;52.758;5.076;2023-09-19T11:58:15;100618.22;;;16.21;100.00
74163;BME280;62515;52.758;5.076;2023-09-19T12:00:44;100598.63;;;16.11;100.00
74163;BME280;62515;52.758;5.076;2023-09-19T12:03:11;100615.59;;;16.12;100.00
74163;BME280;62515;52.758;5.076;2023-09-19T12:05:39;100611.75;;;16.14;100.00
74163;BME280;62515;52.758;5.076;2023-09-19T12:08:07;100614.44;;;16.14;100.00
74163;BME280;62515;52.758;5.076;2023-09-19T12:10:44;100611.34;;;16.09;100.00
74163;BME280;62515;52.758;5.076;2023-09-19T12:13:16;100622.28;;;15.98;100.00
74163;BME280;62515;52.758;5.076;2023-09-19T12:15:43;100626.97;;;15.96;100.00
74163;BME280;62515;52.758;5.076;2023-09-19T12:18:09;100628.41;;;16.18;100.00
74163;BME280;62515;52.758;5.076;2023-09-19T12:20:43;100624.50;;;16.30;100.00
74163;BME280;62515;52.758;5.076;2023-09-19T12:23:14;100621.97;;;16.29;100.00
74163;BME280;62515;52.758;5.076;2023-09-19T12:25:44;100611.75;;;16.14;100.00
74163;BME280;62515;52.758;5.076;2023-09-19T12:28:11;100617.66;;;16.18;100.00
74163;BME280;62515;52.758;5.076;2023-09-19T12:30:39;100609.53;;;16.28;100.00
74163;BME280;62515;52.758;5.076;2023-09-19T12:33:15;100604.69;;;16.49;100.00
74163;BME280;62515;52.758;5.076;2023-09-19T12:35:42;100611.72;;;16.59;100.00
74163;BME280;62515;52.758;5.076;2023-09-19T12:38:09;100526.28;;;16.45;100.00
74163;BME280;62515;52.758;5.076;2023-09-19T12:40:37;100593.91;;;16.41;100.00
74163;BME280;62515;52.758;5.076;2023-09-19T12:43:05;100592.25;;;16.57;100.00
74163;BME280;62515;52.758;5.076;2023-09-19T12:45:32;100593.69;;;16.87;100.00
74163;BME280;62515;52.758;5.076;2023-09-19T12:48:18;100583.06;;;17.03;100.00
74163;BME280;62515;52.758;5.076;2023-09-19T12:51:02;100584.03;;;17.02;100.00
74163;BME280;62515;52.758;5.076;2023-09-19T12:53:30;100587.47;;;17.38;100.00
74163;BME280;62515;52.758;5.076;2023-09-19T12:56:01;100596.59;;;17.45;100.00